sensor_id;sensor_type;location;lat;lon;timestamp;temperature;humidity
8792;DHT22;4432;50.890;4.744;2023-06-22T00:01:53;20.70;99.90
8792;DHT22;4432;50.890;4.744;2023-06-22T00:04:19;20.70;99.90
8792;DHT22;4432;50.890;4.744;2023-06-22T00:06:45;20.70;99.90
8792;DHT22;4432;50.890;4.744;2023-06-22T00:09:10;20.70;99.90
8792;DHT22;4432;50.890;4.744;2023-06-22T00:11:37;20.70;99.90
8792;DHT22;4432;50.890;4.744;2023-06-22T00:14:04;20.60;99.90
8792;DHT22;4432;50.890;4.744;2023-06-22T00:16:31;20.60;99.90
8792;DHT22;4432;50.890;4.744;2023-06-22T00:18:58;20.50;99.90
8792;DHT22;4432;50.890;4.744;2023-06-22T00:21:26;20.50;99.90
8792;DHT22;4432;50.890;4.744;2023-06-22T00:23:52;20.30;99.90
8792;DHT22;4432;50.890;4.744;2023-06-22T00:26:19;20.20;99.90
8792;DHT22;4432;50.890;4.744;2023-06-22T00:28:45;20.10;99.90
8792;DHT22;4432;50.890;4.744;2023-06-22T00:31:10;20.10;99.90
8792;DHT22;4432;50.890;4.744;2023-06-22T00:33:36;20.10;99.90
8792;DHT22;4432;50.890;4.744;2023-06-22T00:36:02;20.00;99.90
8792;DHT22;4432;50.890;4.744;2023-06-22T00:38:28;19.90;99.90
8792;DHT22;4432;50.890;4.744;2023-06-22T00:40:54;19.90;99.90
8792;DHT22;4432;50.890;4.744;2023-06-22T00:43:20;19.80;99.90
8792;DHT22;4432;50.890;4.744;2023-06-22T00:45:46;19.70;99.90
8792;DHT22;4432;50.890;4.744;2023-06-22T00:48:14;19.70;99.90
8792;DHT22;4432;50.890;4.744;2023-06-22T00:50:40;19.70;99.90
8792;DHT22;4432;50.890;4.744;2023-06-22T00:53:07;19.60;99.90
8792;DHT22;4432;50.890;4.744;2023-06-22T00:55:35;19.60;99.90
8792;DHT22;4432;50.890;4.744;2023-06-22T00:58:03;19.70;99.90
8792;DHT22;4432;50.890;4.744;2023-06-22T01:00:31;19.70;99.90
8792;DHT22;4432;50.890;4.744;2023-06-22T01:02:58;19.70;99.90
8792;DHT22;4432;50.890;4.744;2023-06-22T01:05:24;19.70;99.90
8792;DHT22;4432;50.890;4.744;2023-06-22T01:08:29;19.70;99.90
8792;DHT22;4432;50.890;4.744;2023-06-22T01:11:01;19.70;99.90
8792;DHT22;4432;50.890;4.744;2023-06-22T01:13:52;19.70;99.90
8792;DHT22;4432;50.890;4.744;2023-06-22T01:16:31;19.70;99.90
8792;DHT22;4432;50.890;4.744;2023-06-22T01:19:01;19.70;99.90
8792;DHT22;4432;50.890;4.744;2023-06-22T01:21:31;19.70;99.90
8792;DHT22;4432;50.890;4.744;2023-06-22T01:27:17;19.70;99.90
8792;DHT22;4432;50.890;4.744;2023-06-22T01:29:55;19.70;99.90
8792;DHT22;4432;50.890;4.744;2023-06-22T01:32:32;19.80;99.90
8792;DHT22;4432;50.890;4.744;2023-06-22T01:35:04;19.80;99.90
8792;DHT22;4432;50.890;4.744;2023-06-22T01:37:31;19.70;99.90
8792;DHT22;4432;50.890;4.744;2023-06-22T01:39:58;19.50;99.90
8792;DHT22;4432;50.890;4.744;2023-06-22T01:42:25;19.50;99.90
8792;DHT22;4432;50.890;4.744;2023-06-22T01:44:55;19.40;99.90
8792;DHT22;4432;50.890;4.744;2023-06-22T01:47:25;19.30;99.90
8792;DHT22;4432;50.890;4.744;2023-06-22T01:49:51;19.20;99.90
8792;DHT22;4432;50.890;4.744;2023-06-22T01:52:18;19.10;99.90
8792;DHT22;4432;50.890;4.744;2023-06-22T01:54:46;19.10;99.90
8792;DHT22;4432;50.890;4.744;2023-06-22T01:57:12;19.00;99.90
8792;DHT22;4432;50.890;4.744;2023-06-22T02:02:23;19.00;99.90
8792;DHT22;4432;50.890;4.744;2023-06-22T02:04:58;18.80;99.90
8792;DHT22;4432;50.890;4.744;2023-06-22T02:07:29;18.80;99.90
8792;DHT22;4432;50.890;4.744;2023-06-22T02:09:58;18.70;99.90
8792;DHT22;4432;50.890;4.744;2023-06-22T02:12:26;18.70;99.90
8792;DHT22;4432;50.890;4.744;2023-06-22T02:14:54;18.70;99.90
8792;DHT22;4432;50.890;4.744;2023-06-22T02:17:20;18.60;99.90
8792;DHT22;4432;50.890;4.744;2023-06-22T02:19:46;18.60;99.90
8792;DHT22;4432;50.890;4.744;2023-06-22T02:22:12;18.60;99.90
8792;DHT22;4432;50.890;4.744;2023-06-22T02:24:40;18.60;99.90
8792;DHT22;4432;50.890;4.744;2023-06-22T02:27:06;18.60;99.90
8792;DHT22;4432;50.890;4.744;2023-06-22T02:29:33;18.50;99.90
8792;DHT22;4432;50.890;4.744;2023-06-22T02:31:58;18.50;99.90
8792;DHT22;4432;50.890;4.744;2023-06-22T02:34:24;18.50;99.90
8792;DHT22;4432;50.890;4.744;2023-06-22T02:36:50;18.50;99.90
8792;DHT22;4432;50.890;4.744;2023-06-22T02:39:25;18.50;99.90
8792;DHT22;4432;50.890;4.744;2023-06-22T02:41:52;18.50;99.90
8792;DHT22;4432;50.890;4.744;2023-06-22T02:44:19;18.50;99.90
8792;DHT22;4432;50.890;4.744;2023-06-22T02:46:46;18.60;99.90
8792;DHT22;4432;50.890;4.744;2023-06-22T02:49:12;18.60;99.90
8792;DHT22;4432;50.890;4.744;2023-06-22T02:51:42;18.60;99.90
8792;DHT22;4432;50.890;4.744;2023-06-22T02:54:08;18.70;99.90
8792;DHT22;4432;50.890;4.744;2023-06-22T02:56:34;18.80;99.90
8792;DHT22;4432;50.890;4.744;2023-06-22T02:59:02;18.80;99.90
8792;DHT22;4432;50.890;4.744;2023-06-22T03:01:28;18.90;99.90
8792;DHT22;4432;50.890;4.744;2023-06-22T03:03:56;18.80;99.90
8792;DHT22;4432;50.890;4.744;2023-06-22T03:06:22;18.80;99.90
8792;DHT22;4432;50.890;4.744;2023-06-22T03:08:49;18.80;99.90
8792;DHT22;4432;50.890;4.744;2023-06-22T03:11:15;18.70;99.90
8792;DHT22;4432;50.890;4.744;2023-06-22T03:13:41;18.70;99.90
8792;DHT22;4432;50.890;4.744;2023-06-22T03:16:07;18.70;99.90
8792;DHT22;4432;50.890;4.744;2023-06-22T03:18:32;18.80;99.90
8792;DHT22;4432;50.890;4.744;2023-06-22T03:20:58;18.80;99.90
8792;DHT22;4432;50.890;4.744;2023-06-22T03:23:24;18.80;99.90
8792;DHT22;4432;50.890;4.744;2023-06-22T03:25:49;18.80;99.90
8792;DHT22;4432;50.890;4.744;2023-06-22T03:28:15;18.90;99.90
8792;DHT22;4432;50.890;4.744;2023-06-22T03:30:41;18.90;99.90
8792;DHT22;4432;50.890;4.744;2023-06-22T03:33:07;18.90;99.90
8792;DHT22;4432;50.890;4.744;2023-06-22T03:35:33;18.90;99.90
8792;DHT22;4432;50.890;4.744;2023-06-22T03:37:58;18.90;99.90
8792;DHT22;4432;50.890;4.744;2023-06-22T03:40:24;18.80;99.90
8792;DHT22;4432;50.890;4.744;2023-06-22T03:42:50;18.90;99.90
8792;DHT22;4432;50.890;4.744;2023-06-22T03:45:16;18.90;99.90
8792;DHT22;4432;50.890;4.744;2023-06-22T03:47:42;19.00;99.90
8792;DHT22;4432;50.890;4.744;2023-06-22T03:50:08;19.10;99.90
8792;DHT22;4432;50.890;4.744;2023-06-22T03:52:33;19.10;99.90
8792;DHT22;4432;50.890;4.744;2023-06-22T03:54:59;19.10;99.90
8792;DHT22;4432;50.890;4.744;2023-06-22T03:57:25;19.20;99.90
8792;DHT22;4432;50.890;4.744;2023-06-22T03:59:51;19.20;99.90
8792;DHT22;4432;50.890;4.744;2023-06-22T04:02:16;19.20;99.90
8792;DHT22;4432;50.890;4.744;2023-06-22T04:04:42;19.10;99.90
8792;DHT22;4432;50.890;4.744;2023-06-22T04:07:08;19.20;99.90
8792;DHT22;4432;50.890;4.744;2023-06-22T04:09:34;19.20;99.90
8792;DHT22;4432;50.890;4.744;2023-06-22T04:12:01;19.20;99.90
8792;DHT22;4432;50.890;4.744;2023-06-22T04:14:27;19.20;99.90
8792;DHT22;4432;50.890;4.744;2023-06-22T04:16:53;19.30;99.90
8792;DHT22;4432;50.890;4.744;2023-06-22T04:19:19;19.30;99.90
8792;DHT22;4432;50.890;4.744;2023-06-22T04:21:45;19.30;99.90
8792;DHT22;4432;50.890;4.744;2023-06-22T04:24:11;19.30;99.90
8792;DHT22;4432;50.890;4.744;2023-06-22T04:26:37;19.40;99.90
8792;DHT22;4432;50.890;4.744;2023-06-22T04:29:04;19.50;99.90
8792;DHT22;4432;50.890;4.744;2023-06-22T04:31:34;19.50;99.90
8792;DHT22;4432;50.890;4.744;2023-06-22T04:34:06;19.60;99.90
8792;DHT22;4432;50.890;4.744;2023-06-22T04:36:40;19.50;99.90
8792;DHT22;4432;50.890;4.744;2023-06-22T04:39:08;19.40;99.90
8792;DHT22;4432;50.890;4.744;2023-06-22T04:41:36;19.40;99.90
8792;DHT22;4432;50.890;4.744;2023-06-22T04:44:09;19.30;99.90
8792;DHT22;4432;50.890;4.744;2023-06-22T04:46:35;19.30;99.90
8792;DHT22;4432;50.890;4.744;2023-06-22T04:49:10;19.30;99.90
8792;DHT22;4432;50.890;4.744;2023-06-22T04:51:41;19.20;99.90
8792;DHT22;4432;50.890;4.744;2023-06-22T04:54:08;19.20;99.90
8792;DHT22;4432;50.890;4.744;2023-06-22T04:56:34;19.20;99.90
8792;DHT22;4432;50.890;4.744;2023-06-22T04:59:00;19.20;99.90
8792;DHT22;4432;50.890;4.744;2023-06-22T05:01:26;19.30;99.90
8792;DHT22;4432;50.890;4.744;2023-06-22T05:03:52;19.40;99.90
8792;DHT22;4432;50.890;4.744;2023-06-22T05:06:24;19.50;99.90
8792;DHT22;4432;50.890;4.744;2023-06-22T05:08:54;19.60;99.90
8792;DHT22;4432;50.890;4.744;2023-06-22T05:11:26;19.70;99.90
8792;DHT22;4432;50.890;4.744;2023-06-22T05:13:53;19.80;99.90
8792;DHT22;4432;50.890;4.744;2023-06-22T05:16:20;19.80;99.90
8792;DHT22;4432;50.890;4.744;2023-06-22T05:18:55;19.90;99.90
8792;DHT22;4432;50.890;4.744;2023-06-22T05:21:26;19.90;99.90
8792;DHT22;4432;50.890;4.744;2023-06-22T05:23:53;19.90;99.90
8792;DHT22;4432;50.890;4.744;2023-06-22T05:26:20;19.90;99.90
8792;DHT22;4432;50.890;4.744;2023-06-22T05:28:46;20.00;99.90
8792;DHT22;4432;50.890;4.744;2023-06-22T05:31:16;20.00;99.90
8792;DHT22;4432;50.890;4.744;2023-06-22T05:33:43;20.10;99.90
8792;DHT22;4432;50.890;4.744;2023-06-22T05:36:09;20.20;99.90
8792;DHT22;4432;50.890;4.744;2023-06-22T05:38:36;20.30;99.90
8792;DHT22;4432;50.890;4.744;2023-06-22T05:41:02;20.30;99.90
8792;DHT22;4432;50.890;4.744;2023-06-22T05:43:28;20.30;99.90
8792;DHT22;4432;50.890;4.744;2023-06-22T05:45:54;20.20;99.90
8792;DHT22;4432;50.890;4.744;2023-06-22T05:48:19;20.10;99.90
8792;DHT22;4432;50.890;4.744;2023-06-22T05:50:45;20.20;99.90
8792;DHT22;4432;50.890;4.744;2023-06-22T05:53:11;20.20;99.90
8792;DHT22;4432;50.890;4.744;2023-06-22T05:55:37;20.10;99.90
8792;DHT22;4432;50.890;4.744;2023-06-22T05:58:03;20.10;99.90
8792;DHT22;4432;50.890;4.744;2023-06-22T06:00:29;20.10;99.90
8792;DHT22;4432;50.890;4.744;2023-06-22T06:02:55;20.00;99.90
8792;DHT22;4432;50.890;4.744;2023-06-22T06:05:21;20.10;99.90
8792;DHT22;4432;50.890;4.744;2023-06-22T06:07:46;20.20;99.90
8792;DHT22;4432;50.890;4.744;2023-06-22T06:10:13;20.40;99.90
8792;DHT22;4432;50.890;4.744;2023-06-22T06:12:38;20.50;99.90
8792;DHT22;4432;50.890;4.744;2023-06-22T06:15:04;20.60;99.90
8792;DHT22;4432;50.890;4.744;2023-06-22T06:17:30;20.60;99.90
8792;DHT22;4432;50.890;4.744;2023-06-22T06:19:56;20.60;99.90
8792;DHT22;4432;50.890;4.744;2023-06-22T06:22:22;20.50;99.90
8792;DHT22;4432;50.890;4.744;2023-06-22T06:24:49;20.50;99.90
8792;DHT22;4432;50.890;4.744;2023-06-22T06:27:15;20.50;99.90
8792;DHT22;4432;50.890;4.744;2023-06-22T06:29:43;20.50;99.90
8792;DHT22;4432;50.890;4.744;2023-06-22T06:32:11;20.60;99.90
8792;DHT22;4432;50.890;4.744;2023-06-22T06:34:37;20.70;99.90
8792;DHT22;4432;50.890;4.744;2023-06-22T06:37:03;20.90;99.90
8792;DHT22;4432;50.890;4.744;2023-06-22T06:39:29;21.00;99.90
8792;DHT22;4432;50.890;4.744;2023-06-22T06:41:55;21.00;99.90
8792;DHT22;4432;50.890;4.744;2023-06-22T06:44:20;21.10;99.90
8792;DHT22;4432;50.890;4.744;2023-06-22T06:46:46;21.10;99.90
8792;DHT22;4432;50.890;4.744;2023-06-22T06:49:12;21.30;99.90
8792;DHT22;4432;50.890;4.744;2023-06-22T06:51:38;21.40;99.90
8792;DHT22;4432;50.890;4.744;2023-06-22T06:54:04;21.50;99.90
8792;DHT22;4432;50.890;4.744;2023-06-22T06:56:30;21.70;99.90
8792;DHT22;4432;50.890;4.744;2023-06-22T06:58:58;21.70;99.90
8792;DHT22;4432;50.890;4.744;2023-06-22T07:01:24;21.70;99.90
8792;DHT22;4432;50.890;4.744;2023-06-22T07:03:50;21.60;99.90
8792;DHT22;4432;50.890;4.744;2023-06-22T07:06:16;21.60;99.90
8792;DHT22;4432;50.890;4.744;2023-06-22T07:08:42;21.50;99.90
8792;DHT22;4432;50.890;4.744;2023-06-22T07:11:08;21.50;99.90
8792;DHT22;4432;50.890;4.744;2023-06-22T07:13:34;21.50;99.90
8792;DHT22;4432;50.890;4.744;2023-06-22T07:16:00;21.40;99.90
8792;DHT22;4432;50.890;4.744;2023-06-22T07:18:25;21.30;99.90
8792;DHT22;4432;50.890;4.744;2023-06-22T07:20:52;21.20;99.90
8792;DHT22;4432;50.890;4.744;2023-06-22T07:23:18;21.10;99.90
8792;DHT22;4432;50.890;4.744;2023-06-22T07:25:44;21.10;99.90
8792;DHT22;4432;50.890;4.744;2023-06-22T07:28:09;21.10;99.90
8792;DHT22;4432;50.890;4.744;2023-06-22T07:30:35;21.10;99.90
8792;DHT22;4432;50.890;4.744;2023-06-22T07:33:01;21.20;99.90
8792;DHT22;4432;50.890;4.744;2023-06-22T07:35:33;21.30;99.90
8792;DHT22;4432;50.890;4.744;2023-06-22T07:37:59;21.40;99.90
8792;DHT22;4432;50.890;4.744;2023-06-22T07:40:26;21.50;99.90
8792;DHT22;4432;50.890;4.744;2023-06-22T07:42:52;21.40;99.90
8792;DHT22;4432;50.890;4.744;2023-06-22T07:45:18;21.30;99.90
8792;DHT22;4432;50.890;4.744;2023-06-22T07:47:44;21.40;99.90
8792;DHT22;4432;50.890;4.744;2023-06-22T07:50:10;21.30;99.90
8792;DHT22;4432;50.890;4.744;2023-06-22T07:52:36;21.30;99.90
8792;DHT22;4432;50.890;4.744;2023-06-22T07:55:02;21.20;99.90
8792;DHT22;4432;50.890;4.744;2023-06-22T07:57:28;21.10;99.90
8792;DHT22;4432;50.890;4.744;2023-06-22T08:00:03;21.10;99.90
8792;DHT22;4432;50.890;4.744;2023-06-22T08:02:40;21.10;99.90
8792;DHT22;4432;50.890;4.744;2023-06-22T08:05:07;21.20;99.90
8792;DHT22;4432;50.890;4.744;2023-06-22T08:07:34;21.20;99.90
8792;DHT22;4432;50.890;4.744;2023-06-22T08:10:02;21.10;99.90
8792;DHT22;4432;50.890;4.744;2023-06-22T08:12:28;21.10;99.90
8792;DHT22;4432;50.890;4.744;2023-06-22T08:14:54;21.00;99.90
8792;DHT22;4432;50.890;4.744;2023-06-22T08:17:20;21.00;99.90
8792;DHT22;4432;50.890;4.744;2023-06-22T08:19:45;21.10;99.90
8792;DHT22;4432;50.890;4.744;2023-06-22T08:22:11;21.00;99.90
8792;DHT22;4432;50.890;4.744;2023-06-22T08:24:37;21.00;99.90
8792;DHT22;4432;50.890;4.744;2023-06-22T08:27:02;21.00;99.90
8792;DHT22;4432;50.890;4.744;2023-06-22T08:29:28;21.00;99.90
8792;DHT22;4432;50.890;4.744;2023-06-22T08:31:54;21.00;99.90
8792;DHT22;4432;50.890;4.744;2023-06-22T08:34:20;21.10;99.90
8792;DHT22;4432;50.890;4.744;2023-06-22T08:36:48;21.10;99.90
8792;DHT22;4432;50.890;4.744;2023-06-22T08:39:17;21.10;99.90
8792;DHT22;4432;50.890;4.744;2023-06-22T08:41:43;21.20;99.90
8792;DHT22;4432;50.890;4.744;2023-06-22T08:44:09;21.10;99.90
8792;DHT22;4432;50.890;4.744;2023-06-22T08:46:34;21.10;99.90
8792;DHT22;4432;50.890;4.744;2023-06-22T08:49:00;21.20;99.90
8792;DHT22;4432;50.890;4.744;2023-06-22T08:51:26;21.20;99.90
8792;DHT22;4432;50.890;4.744;2023-06-22T08:53:52;21.20;99.90
8792;DHT22;4432;50.890;4.744;2023-06-22T08:56:18;21.30;99.90
8792;DHT22;4432;50.890;4.744;2023-06-22T08:58:44;21.30;99.90
8792;DHT22;4432;50.890;4.744;2023-06-22T09:01:10;21.30;99.90
8792;DHT22;4432;50.890;4.744;2023-06-22T09:03:35;21.40;99.90
8792;DHT22;4432;50.890;4.744;2023-06-22T09:06:03;21.50;99.90
8792;DHT22;4432;50.890;4.744;2023-06-22T09:08:29;21.60;99.90
8792;DHT22;4432;50.890;4.744;2023-06-22T09:10:55;21.70;99.90
8792;DHT22;4432;50.890;4.744;2023-06-22T09:13:20;21.70;99.90
8792;DHT22;4432;50.890;4.744;2023-06-22T09:15:47;21.60;99.90
8792;DHT22;4432;50.890;4.744;2023-06-22T09:18:14;21.50;99.90
8792;DHT22;4432;50.890;4.744;2023-06-22T09:20:40;21.40;99.90
8792;DHT22;4432;50.890;4.744;2023-06-22T09:23:05;21.40;99.90
8792;DHT22;4432;50.890;4.744;2023-06-22T09:25:31;21.30;99.90
8792;DHT22;4432;50.890;4.744;2023-06-22T09:27:57;21.00;99.90
8792;DHT22;4432;50.890;4.744;2023-06-22T09:30:23;20.90;99.90
8792;DHT22;4432;50.890;4.744;2023-06-22T09:32:48;20.90;99.90
8792;DHT22;4432;50.890;4.744;2023-06-22T09:35:14;20.90;99.90
8792;DHT22;4432;50.890;4.744;2023-06-22T09:37:40;20.80;99.90
8792;DHT22;4432;50.890;4.744;2023-06-22T09:40:07;20.70;99.90
8792;DHT22;4432;50.890;4.744;2023-06-22T09:42:35;20.70;99.90
8792;DHT22;4432;50.890;4.744;2023-06-22T09:45:01;20.60;99.90
8792;DHT22;4432;50.890;4.744;2023-06-22T09:47:27;20.50;99.90
8792;DHT22;4432;50.890;4.744;2023-06-22T09:49:53;20.30;99.90
8792;DHT22;4432;50.890;4.744;2023-06-22T09:52:21;20.20;99.90
8792;DHT22;4432;50.890;4.744;2023-06-22T09:54:47;19.80;99.90
8792;DHT22;4432;50.890;4.744;2023-06-22T09:57:13;19.60;99.90
8792;DHT22;4432;50.890;4.744;2023-06-22T09:59:38;19.40;99.90
8792;DHT22;4432;50.890;4.744;2023-06-22T10:02:07;19.20;99.90
8792;DHT22;4432;50.890;4.744;2023-06-22T10:04:34;19.10;99.90
8792;DHT22;4432;50.890;4.744;2023-06-22T10:07:00;19.00;99.90
8792;DHT22;4432;50.890;4.744;2023-06-22T10:09:27;18.80;99.90
8792;DHT22;4432;50.890;4.744;2023-06-22T10:11:52;18.80;99.90
8792;DHT22;4432;50.890;4.744;2023-06-22T10:14:18;18.80;99.90
8792;DHT22;4432;50.890;4.744;2023-06-22T10:16:44;18.80;99.90
8792;DHT22;4432;50.890;4.744;2023-06-22T10:19:10;18.80;99.90
8792;DHT22;4432;50.890;4.744;2023-06-22T10:21:36;18.90;99.90
8792;DHT22;4432;50.890;4.744;2023-06-22T10:24:02;18.90;99.90
8792;DHT22;4432;50.890;4.744;2023-06-22T10:26:35;18.80;99.90
8792;DHT22;4432;50.890;4.744;2023-06-22T10:29:02;18.80;99.90
8792;DHT22;4432;50.890;4.744;2023-06-22T10:31:28;18.70;99.90
8792;DHT22;4432;50.890;4.744;2023-06-22T10:33:55;18.70;99.90
8792;DHT22;4432;50.890;4.744;2023-06-22T10:36:21;18.60;99.90
8792;DHT22;4432;50.890;4.744;2023-06-22T10:38:47;18.60;99.90
8792;DHT22;4432;50.890;4.744;2023-06-22T10:41:14;18.70;99.90
8792;DHT22;4432;50.890;4.744;2023-06-22T10:43:39;18.60;99.90
8792;DHT22;4432;50.890;4.744;2023-06-22T10:46:06;18.40;99.90
8792;DHT22;4432;50.890;4.744;2023-06-22T10:48:32;18.40;99.90
8792;DHT22;4432;50.890;4.744;2023-06-22T10:50:58;18.30;99.90
8792;DHT22;4432;50.890;4.744;2023-06-22T10:53:24;18.30;99.90
8792;DHT22;4432;50.890;4.744;2023-06-22T10:55:50;18.20;99.90
8792;DHT22;4432;50.890;4.744;2023-06-22T10:58:18;18.20;99.90
8792;DHT22;4432;50.890;4.744;2023-06-22T11:00:45;18.10;99.90
8792;DHT22;4432;50.890;4.744;2023-06-22T11:03:10;18.10;99.90
8792;DHT22;4432;50.890;4.744;2023-06-22T11:05:36;18.10;99.90
8792;DHT22;4432;50.890;4.744;2023-06-22T11:08:02;18.10;99.90
8792;DHT22;4432;50.890;4.744;2023-06-22T11:10:28;18.10;99.90
8792;DHT22;4432;50.890;4.744;2023-06-22T11:12:53;18.10;99.90
8792;DHT22;4432;50.890;4.744;2023-06-22T11:15:21;18.10;99.90
8792;DHT22;4432;50.890;4.744;2023-06-22T11:17:46;18.20;99.90
8792;DHT22;4432;50.890;4.744;2023-06-22T11:20:12;18.20;99.90
8792;DHT22;4432;50.890;4.744;2023-06-22T11:22:39;18.30;99.90
8792;DHT22;4432;50.890;4.744;2023-06-22T11:25:06;18.30;99.90
8792;DHT22;4432;50.890;4.744;2023-06-22T11:27:32;18.20;99.90
8792;DHT22;4432;50.890;4.744;2023-06-22T11:29:57;18.30;99.90
8792;DHT22;4432;50.890;4.744;2023-06-22T11:32:23;18.30;99.90
8792;DHT22;4432;50.890;4.744;2023-06-22T11:34:49;18.30;99.90
8792;DHT22;4432;50.890;4.744;2023-06-22T11:37:15;18.30;99.90
8792;DHT22;4432;50.890;4.744;2023-06-22T11:39:42;18.30;99.90
8792;DHT22;4432;50.890;4.744;2023-06-22T11:42:11;18.30;99.90
8792;DHT22;4432;50.890;4.744;2023-06-22T11:44:37;18.30;99.90
8792;DHT22;4432;50.890;4.744;2023-06-22T11:47:03;18.20;99.90
8792;DHT22;4432;50.890;4.744;2023-06-22T11:49:33;18.30;99.90
8792;DHT22;4432;50.890;4.744;2023-06-22T11:51:58;18.20;99.90
8792;DHT22;4432;50.890;4.744;2023-06-22T11:54:24;18.30;99.90
8792;DHT22;4432;50.890;4.744;2023-06-22T11:56:50;18.20;99.90
8792;DHT22;4432;50.890;4.744;2023-06-22T11:59:16;18.30;99.90
8792;DHT22;4432;50.890;4.744;2023-06-22T12:01:41;18.30;99.90
8792;DHT22;4432;50.890;4.744;2023-06-22T12:04:07;18.30;99.90
8792;DHT22;4432;50.890;4.744;2023-06-22T12:06:38;18.30;99.90
8792;DHT22;4432;50.890;4.744;2023-06-22T12:09:06;18.30;99.90
8792;DHT22;4432;50.890;4.744;2023-06-22T12:11:32;18.30;99.90
8792;DHT22;4432;50.890;4.744;2023-06-22T12:13:58;18.30;99.90
8792;DHT22;4432;50.890;4.744;2023-06-22T12:16:30;18.30;99.90
8792;DHT22;4432;50.890;4.744;2023-06-22T12:18:56;18.30;99.90
8792;DHT22;4432;50.890;4.744;2023-06-22T12:21:22;18.30;99.90
8792;DHT22;4432;50.890;4.744;2023-06-22T12:23:48;18.30;99.90
8792;DHT22;4432;50.890;4.744;2023-06-22T12:26:14;18.30;99.90
8792;DHT22;4432;50.890;4.744;2023-06-22T12:28:40;18.30;99.90
8792;DHT22;4432;50.890;4.744;2023-06-22T12:31:05;18.30;99.90
8792;DHT22;4432;50.890;4.744;2023-06-22T12:33:31;18.30;99.90
8792;DHT22;4432;50.890;4.744;2023-06-22T12:35:57;18.30;99.90
8792;DHT22;4432;50.890;4.744;2023-06-22T12:38:23;18.30;99.90
8792;DHT22;4432;50.890;4.744;2023-06-22T12:40:51;18.30;99.90
8792;DHT22;4432;50.890;4.744;2023-06-22T12:43:17;18.30;99.90
8792;DHT22;4432;50.890;4.744;2023-06-22T12:45:42;18.30;99.90
8792;DHT22;4432;50.890;4.744;2023-06-22T12:48:08;18.30;99.90
8792;DHT22;4432;50.890;4.744;2023-06-22T12:50:34;18.30;99.90
8792;DHT22;4432;50.890;4.744;2023-06-22T12:53:00;18.30;99.90
8792;DHT22;4432;50.890;4.744;2023-06-22T12:55:28;18.30;99.90
8792;DHT22;4432;50.890;4.744;2023-06-22T12:57:53;18.30;99.90
8792;DHT22;4432;50.890;4.744;2023-06-22T13:00:19;18.30;99.90
8792;DHT22;4432;50.890;4.744;2023-06-22T13:02:45;18.40;99.90
8792;DHT22;4432;50.890;4.744;2023-06-22T13:05:11;18.40;99.90
8792;DHT22;4432;50.890;4.744;2023-06-22T13:07:37;18.40;99.90
8792;DHT22;4432;50.890;4.744;2023-06-22T13:10:03;18.40;99.90
8792;DHT22;4432;50.890;4.744;2023-06-22T13:12:29;18.40;99.90
8792;DHT22;4432;50.890;4.744;2023-06-22T13:14:54;18.40;99.90
8792;DHT22;4432;50.890;4.744;2023-06-22T13:17:21;18.40;99.90
8792;DHT22;4432;50.890;4.744;2023-06-22T13:19:46;18.30;99.90
8792;DHT22;4432;50.890;4.744;2023-06-22T13:22:45;18.30;99.90
8792;DHT22;4432;50.890;4.744;2023-06-22T13:25:10;18.30;99.90
8792;DHT22;4432;50.890;4.744;2023-06-22T13:27:41;18.30;99.90
8792;DHT22;4432;50.890;4.744;2023-06-22T13:30:10;18.30;99.90
8792;DHT22;4432;50.890;4.744;2023-06-22T13:32:36;18.30;99.90
8792;DHT22;4432;50.890;4.744;2023-06-22T13:35:02;18.40;99.90
8792;DHT22;4432;50.890;4.744;2023-06-22T13:37:27;18.40;99.90
8792;DHT22;4432;50.890;4.744;2023-06-22T13:39:53;18.40;99.90
8792;DHT22;4432;50.890;4.744;2023-06-22T13:42:21;18.40;99.90
8792;DHT22;4432;50.890;4.744;2023-06-22T13:44:47;18.40;99.90
8792;DHT22;4432;50.890;4.744;2023-06-22T13:47:13;18.40;99.90
8792;DHT22;4432;50.890;4.744;2023-06-22T13:49:38;18.40;99.90
8792;DHT22;4432;50.890;4.744;2023-06-22T13:52:04;18.40;99.90
8792;DHT22;4432;50.890;4.744;2023-06-22T13:54:32;18.40;99.90
8792;DHT22;4432;50.890;4.744;2023-06-22T13:56:57;18.40;99.90
8792;DHT22;4432;50.890;4.744;2023-06-22T13:59:23;18.40;99.90
8792;DHT22;4432;50.890;4.744;2023-06-22T14:01:49;18.40;99.90
8792;DHT22;4432;50.890;4.744;2023-06-22T14:04:15;18.40;99.90
8792;DHT22;4432;50.890;4.744;2023-06-22T14:06:41;18.40;99.90
8792;DHT22;4432;50.890;4.744;2023-06-22T14:09:07;18.40;99.90
8792;DHT22;4432;50.890;4.744;2023-06-22T14:11:32;18.30;99.90
8792;DHT22;4432;50.890;4.744;2023-06-22T14:13:58;18.40;99.90
8792;DHT22;4432;50.890;4.744;2023-06-22T14:16:24;18.40;99.90
8792;DHT22;4432;50.890;4.744;2023-06-22T14:18:49;18.40;99.90
8792;DHT22;4432;50.890;4.744;2023-06-22T14:21:15;18.40;99.90
8792;DHT22;4432;50.890;4.744;2023-06-22T14:23:41;18.40;99.90
8792;DHT22;4432;50.890;4.744;2023-06-22T14:26:07;18.40;99.90
8792;DHT22;4432;50.890;4.744;2023-06-22T14:28:32;18.30;99.90
8792;DHT22;4432;50.890;4.744;2023-06-22T14:30:58;18.30;99.90
8792;DHT22;4432;50.890;4.744;2023-06-22T14:33:24;18.30;99.90
8792;DHT22;4432;50.890;4.744;2023-06-22T14:35:50;18.40;99.90
8792;DHT22;4432;50.890;4.744;2023-06-22T14:38:15;18.30;99.90
8792;DHT22;4432;50.890;4.744;2023-06-22T14:40:41;18.30;99.90
8792;DHT22;4432;50.890;4.744;2023-06-22T14:43:07;18.30;99.90
8792;DHT22;4432;50.890;4.744;2023-06-22T14:45:33;18.30;99.90
8792;DHT22;4432;50.890;4.744;2023-06-22T14:47:58;18.30;99.90
8792;DHT22;4432;50.890;4.744;2023-06-22T14:50:24;18.30;99.90
8792;DHT22;4432;50.890;4.744;2023-06-22T14:52:50;18.30;99.90
8792;DHT22;4432;50.890;4.744;2023-06-22T14:55:15;18.40;99.90
8792;DHT22;4432;50.890;4.744;2023-06-22T14:57:41;18.40;99.90
8792;DHT22;4432;50.890;4.744;2023-06-22T15:00:07;18.30;99.90
8792;DHT22;4432;50.890;4.744;2023-06-22T15:02:33;18.30;99.90
8792;DHT22;4432;50.890;4.744;2023-06-22T15:04:59;18.40;99.90
8792;DHT22;4432;50.890;4.744;2023-06-22T15:07:24;18.40;99.90
8792;DHT22;4432;50.890;4.744;2023-06-22T15:09:50;18.40;99.90
8792;DHT22;4432;50.890;4.744;2023-06-22T15:12:16;18.40;99.90
8792;DHT22;4432;50.890;4.744;2023-06-22T15:14:42;18.50;99.90
8792;DHT22;4432;50.890;4.744;2023-06-22T15:17:08;18.40;99.90
8792;DHT22;4432;50.890;4.744;2023-06-22T15:19:39;18.50;99.90
8792;DHT22;4432;50.890;4.744;2023-06-22T15:22:06;18.60;99.90
8792;DHT22;4432;50.890;4.744;2023-06-22T15:24:32;18.60;99.90
8792;DHT22;4432;50.890;4.744;2023-06-22T15:26:58;18.70;99.90
8792;DHT22;4432;50.890;4.744;2023-06-22T15:29:24;18.80;99.90
8792;DHT22;4432;50.890;4.744;2023-06-22T15:31:51;18.90;99.90
8792;DHT22;4432;50.890;4.744;2023-06-22T15:34:17;18.90;99.90
8792;DHT22;4432;50.890;4.744;2023-06-22T15:36:43;18.90;99.90
8792;DHT22;4432;50.890;4.744;2023-06-22T15:39:09;18.90;99.90
8792;DHT22;4432;50.890;4.744;2023-06-22T15:41:35;19.00;99.90
8792;DHT22;4432;50.890;4.744;2023-06-22T15:44:01;19.00;99.90
8792;DHT22;4432;50.890;4.744;2023-06-22T15:46:27;18.90;99.90
8792;DHT22;4432;50.890;4.744;2023-06-22T15:48:53;18.90;99.90
8792;DHT22;4432;50.890;4.744;2023-06-22T15:51:18;18.90;99.90
8792;DHT22;4432;50.890;4.744;2023-06-22T15:53:44;18.90;99.90
8792;DHT22;4432;50.890;4.744;2023-06-22T15:56:10;18.90;99.90
8792;DHT22;4432;50.890;4.744;2023-06-22T15:58:36;18.90;99.90
8792;DHT22;4432;50.890;4.744;2023-06-22T16:01:02;18.90;99.90
8792;DHT22;4432;50.890;4.744;2023-06-22T16:03:31;18.90;99.90
8792;DHT22;4432;50.890;4.744;2023-06-22T16:05:57;18.90;99.90